Dirección General De Aeronáutica Civil

Dirección Meteorológica de Chile - Servicios Climáticos

Informe General de Control de Calidad de la Estación

Listado de niveles de control de calidad para algunos parámetros
Estación Puerto Varas ESSAL (410040)
Fecha de Revisión de los datos :

Elementos

Registros Niveles de Control Total
Nivel 0 Nivel 1 Nivel 2 Nivel 3 Errores Porcentaje
01 Temperatura del Aire Seco 40.343 0 . 0 . 0 . 0 . 0 0.00 %
02 Temperatura de Rocío 40.372 0 . 0 . 0 . 0 . 0 0.00 %
03 Humedad Relativa del Aire 40.371 0 . 0 . 0 . 0 . 0 0.00 %
04 Temperatura Máxima PM 1.681 0 . 0 . 32 1.90 % 0 . 32 1.90 %
05 Temperatura Mínima AM 1.674 0 . 0 . 0 . 0 . 0 0.00 %
06 Viento a 10 m. de Altura 40.356 0 . 0 . 1 0.00 % 0 . 1 0.00 %
07 Agua Caida, Acumulada 6 Horas 6.686 0 . 0 . 0 . 0 . 0 0.00 %
08 Presión Atm. a Nivel de Estación (QFE) 40.372 0 . 0 . 0 . 0 . 0 0.00 %
09 Presión Atm. a Nivel Medio del Mar (QFF) 40.372 0 . 0 . 0 . 0 . 0 0.00 %
10 Presión Atm. Estándar OACI (QNH) 40.372 0 . 0 . 0 . 0 . 0 0.00 %

Totales

292.599 . 0.0000 % . 0.0000 % . 0.0113 % . 0.0000 % 33 0.0113 %

Detalle de Errores Encontrados

Nivel Fecha del Dato Descripción Información Error Fecha Ingreso
2 2018-09-02 00:00:00 Temperatura 12.3 del 01-09-2018 21:00, Mayor que la Máxima 9.9 02-09-2018 00:00 12.3 -- 9.9 2018-12-13 19:05:00
2 2018-10-18 00:00:00 Temperatura 11.7 del 17-10-2018 21:00, Mayor que la Máxima 11.1 18-10-2018 00:00 11.7 -- 11.1 2018-12-13 19:06:00
2 2018-10-31 00:00:00 Temperatura 14.3 del 30-10-2018 20:00, Mayor que la Máxima 11.1 31-10-2018 00:00 14.3 -- 11.1 2018-12-13 19:08:00
2 2018-11-13 00:00:00 Temperatura 21.1 del 12-11-2018 19:00, Mayor que la Máxima 13.3 13-11-2018 00:00 21.1 -- 13.3 2018-12-13 19:07:00
2 2019-03-23 00:00:00 Temperatura 17.5 del 22-03-2019 20:00, Mayor que la Máxima 13.9 23-03-2019 00:00 17.5 -- 13.9 2019-03-23 00:20:00
2 2019-03-26 00:00:00 Temperatura 16.0 del 25-03-2019 20:00, Mayor que la Máxima 11.7 26-03-2019 00:00 16.0 -- 11.7 2019-03-26 00:20:00
2 2019-04-27 00:00:00 Temperatura 15.1 del 26-04-2019 19:00, Mayor que la Máxima 13.3 27-04-2019 00:00 15.1 -- 13.3 2019-04-27 00:20:00
2 2019-05-14 00:00:00 Temperatura 12.1 del 13-05-2019 19:00, Mayor que la Máxima 11.3 14-05-2019 00:00 12.1 -- 11.3 2019-05-14 19:25:00
2 2019-06-14 00:00:00 Temperatura 9.5 del 13-06-2019 20:00, Mayor que la Máxima 6.9 14-06-2019 00:00 9.5 -- 6.9 2019-06-14 00:20:00
2 2019-06-19 00:00:00 Temperatura 11.0 del 18-06-2019 19:00, Mayor que la Máxima 10.6 19-06-2019 00:00 11.0 -- 10.6 2019-06-19 00:20:00
2 2020-02-23 00:00:00 Temperatura 30.1 del 22-02-2020 20:00, Mayor que la Máxima 22.2 23-02-2020 00:00 30.1 -- 22.2 2020-02-23 00:20:00
2 2020-09-22 00:00:00 Temperatura 14.5 del 21-09-2020 18:00, Mayor que la Máxima 8.3 22-09-2020 00:00 14.5 -- 8.3 2020-09-22 00:20:00
2 2020-09-24 00:00:00 Temperatura 14.2 del 23-09-2020 17:00, Mayor que la Máxima 12.8 24-09-2020 00:00 14.2 -- 12.8 2020-09-24 00:20:00
2 2021-03-22 00:00:00 Temperatura 21.7 del 21-03-2021 18:00, Mayor que la Máxima 15.3 22-03-2021 00:00 21.7 -- 15.3 2021-03-22 00:20:00
2 2021-04-23 00:00:00 Temperatura 13.8 del 22-04-2021 21:00, Mayor que la Máxima 10.9 23-04-2021 00:00 13.8 -- 10.9 2021-10-01 17:42:00
2 2021-05-11 00:00:00 Temperatura 13.2 del 10-05-2021 19:00, Mayor que la Máxima 7.7 11-05-2021 00:00 13.2 -- 7.7 2021-10-01 17:42:00
2 2021-05-17 00:00:00 Temperatura 13.3 del 16-05-2021 20:00, Mayor que la Máxima 9.1 17-05-2021 00:00 13.3 -- 9.1 2021-10-01 17:42:00
2 2021-05-23 00:00:00 Temperatura 12.0 del 22-05-2021 19:00, Mayor que la Máxima 11.9 23-05-2021 00:00 12.0 -- 11.9 2021-10-01 17:42:00
2 2021-07-06 00:00:00 Temperatura 11.6 del 05-07-2021 22:00, Mayor que la Máxima 9.9 06-07-2021 00:00 11.6 -- 9.9 2021-10-01 17:42:00
2 2021-08-09 00:00:00 Temperatura 10.4 del 08-08-2021 18:00, Mayor que la Máxima 7.0 09-08-2021 00:00 10.4 -- 7.0 2021-10-01 17:43:00
2 2021-08-14 00:00:00 Temperatura 8.3 del 13-08-2021 19:00, Mayor que la Máxima 7.1 14-08-2021 00:00 8.3 -- 7.1 2021-10-01 17:43:00
2 2021-09-22 00:00:00 Temperatura 16.1 del 21-09-2021 18:00, Mayor que la Máxima 8.7 22-09-2021 00:00 16.1 -- 8.7 2021-10-01 17:43:00
2 2022-02-04 00:00:00 Temperatura 24.7 del 03-02-2022 19:00, Mayor que la Máxima 17.7 04-02-2022 00:00 24.7 -- 17.7 2022-02-04 16:32:00
2 2022-02-23 00:00:00 Temperatura 24.4 del 22-02-2022 22:00, Mayor que la Máxima 20.1 23-02-2022 00:00 24.4 -- 20.1 2022-02-23 00:36:00
2 2022-03-22 00:00:00 Temperatura 16.7 del 21-03-2022 19:00, Mayor que la Máxima 14.1 22-03-2022 00:00 16.7 -- 14.1 2022-03-22 00:36:00
2 2022-04-09 00:00:00 Temperatura 17.5 del 08-04-2022 20:00, Mayor que la Máxima 13.5 09-04-2022 00:00 17.5 -- 13.5 2022-04-09 00:36:00
2 2022-04-23 00:00:00 Temperatura 14.0 del 22-04-2022 19:00, Mayor que la Máxima 11.2 23-04-2022 00:00 14.0 -- 11.2 2022-04-23 00:21:00
2 2022-05-06 00:00:00 Temperatura 14.5 del 05-05-2022 18:00, Mayor que la Máxima 13.5 06-05-2022 00:00 14.5 -- 13.5 2022-05-06 00:35:00
2 2022-08-23 00:00:00 Temperatura 11.9 del 22-08-2022 20:00, Mayor que la Máxima 7.9 23-08-2022 00:00 11.9 -- 7.9 2022-08-23 00:22:00
2 2022-10-22 00:00:00 Temperatura 15.1 del 21-10-2022 18:00, Mayor que la Máxima 8.5 22-10-2022 00:00 15.1 -- 8.5 2022-10-22 00:21:00
2 2022-12-21 00:00:00 Temperatura 19.0 del 20-12-2022 21:00, Mayor que la Máxima 18.8 21-12-2022 00:00 19.0 -- 18.8 2022-12-21 00:20:00
2 2023-09-22 00:00:00 Temperatura 12.4 del 21-09-2023 16:00, Mayor que la Máxima 12.0 22-09-2023 00:00 12.4 -- 12.0 2023-09-22 00:09:00
2 2023-03-29 15:00:00 Variación horaria de Intensidad del viento fuera de rango (1 hora Antes) 5 - 36 2023-03-29 15:09:00
Errores del Nivel 33
Informe generado el 24-07-2024 11:31
Requerimiento: RE6001